Terminal Aerodrome Forecast
Issued by NWS Des Moines, IA

Home | Current Version | Previous Version | Text Only | Print | Product List | Glossary On
Versions: 1 2 3 4 5 6 7 8 9 10 11 12 13 14 15 16 17 18 19 20 21 22 23 24 25 26 27 28 29 30 31 32 33 34 35 36 37 38 39 40 41 42 43 44 45 46 47 48 49 50
947
FTUS43 KDMX 221458 AAA
TAFDSM
TAF AMD
KDSM 221458Z 2215/2312 09008KT 5SM -SN BKN022 OVC045
     FM221700 10007KT 5SM -FZRA BR OVC017
     FM221900 10006KT 3SM -FZDZ BR OVC008
     FM230000 10006KT 1SM -RA OVC004
     FM230700 21004KT P6SM OVC004=

USA.gov is the U.S. government's official web portal to all federal, state and local government web resources and services.